Portada
METAR-TAF:

METAR-TAF

Aeropuertos :

Aeropuerto Internacional Eleftherios Venizelos

Atenas, Grecia

latitud: 37-56N, longitud: 023-56E, altitud: 94 m

Observación

El informe se hizo hace 38 minutos, a las 16:20 UTC
Viento 8 kt del norte
Temperatura 19°C
Humedad 60%
Presión 1017 hPa
Visibilidad 10 km o más
Escasas nubes a una altura de 3000 ft

METAR: LGAV 171620Z 01008KT 9999 FEW030 19/11 Q1017 NOSIG

Hora: 19:58 (16:58 UTC)

Pronóstico

El informe se hizo hace 5 horas y 58 minutos, a las 11:00 UTC
Pronóstico válido del 17 a las 12 UTC al 18 a las 12 UTC
Viento 18 kt del norte-noreste
Visibilidad 10 km o más
Escasas nubes a una altura de 3000 ft
Evolucionando progresivamente
del 17 a las 19 UTC al 17 a las 21 UTC
Viento 8 kt del norte
Evolucionando progresivamente
del 18 a las 08 UTC al 18 a las 10 UTC
Nubes dispersas a una altura de 2000 ft

TAF: LGAV 171100Z 1712/1812 02018KT 9999 FEW030 BECMG 1719/1721 35008KT BECMG 1808/1810 SCT020

Observaciones y pronósticos meteorológicos de más de 4000 aeropuertos (mensajes METAR y TAF).

Los puntos amarillos y rojos representan las estaciones disponibles.

Ponga el ratón en el punto deseado para ver el nombre de la estación.

Haga clic para ver las observaciones y los pronósticos meteorológicos.

Para cambiar el mapa : haga clic en los botones verdes con una cruz de color negro para hacer un zoom, en el botón verde con un guión para alejar o en las flechas verdes para mapas adyacentes.


METAR-TAF: